createdAt,value
2022-08-29T00:01:49.971Z,4.07
2022-08-29T00:04:17.155Z,3.90
2022-08-29T00:06:44.271Z,4.00
2022-08-29T00:09:11.312Z,3.97
2022-08-29T00:11:39.760Z,4.22
2022-08-29T00:14:20.468Z,4.00
2022-08-29T00:16:50.697Z,4.07
2022-08-29T00:19:17.854Z,4.38
2022-08-29T00:21:44.961Z,3.95
2022-08-29T00:24:12.036Z,4.03
2022-08-29T00:26:39.359Z,3.83
2022-08-29T00:29:06.403Z,3.97
2022-08-29T00:31:33.463Z,4.30
2022-08-29T00:34:00.583Z,4.10
2022-08-29T00:36:30.532Z,4.07
2022-08-29T00:38:58.327Z,4.00
2022-08-29T00:41:25.483Z,3.85
2022-08-29T00:43:52.520Z,3.97
2022-08-29T00:46:19.621Z,3.60
2022-08-29T00:48:46.721Z,4.35
2022-08-29T00:51:13.834Z,4.10
2022-08-29T00:53:41.940Z,4.10
2022-08-29T00:56:09.032Z,4.20
2022-08-29T00:58:36.078Z,3.95
2022-08-29T01:01:03.185Z,3.90
2022-08-29T01:03:30.251Z,4.07
2022-08-29T01:05:57.351Z,4.00
2022-08-29T01:08:24.392Z,3.50
2022-08-29T01:11:10.130Z,3.83
2022-08-29T01:13:37.186Z,3.60
2022-08-29T01:16:04.288Z,4.05
2022-08-29T01:18:31.482Z,3.88
2022-08-29T01:20:58.516Z,3.60
2022-08-29T01:23:25.581Z,3.85
2022-08-29T01:25:52.659Z,3.83
2022-08-29T01:28:19.728Z,4.00
2022-08-29T01:30:46.770Z,3.95
2022-08-29T01:33:13.824Z,3.80
2022-08-29T01:35:41.842Z,4.10
2022-08-29T01:38:08.920Z,3.95
2022-08-29T01:40:36.029Z,4.00
2022-08-29T01:43:03.137Z,4.00
2022-08-29T01:45:30.231Z,3.95
2022-08-29T01:47:58.418Z,4.00
2022-08-29T01:50:27.830Z,3.85
2022-08-29T01:52:54.869Z,4.13
2022-08-29T01:55:21.940Z,4.10
2022-08-29T01:57:49.008Z,3.97
2022-08-29T02:00:18.491Z,3.80
2022-08-29T02:02:45.547Z,4.03
2022-08-29T02:05:12.620Z,4.00
2022-08-29T02:07:39.692Z,3.63
2022-08-29T02:10:06.726Z,4.15
2022-08-29T02:12:34.453Z,3.63
2022-08-29T02:15:01.583Z,3.80
2022-08-29T02:17:29.674Z,4.00
2022-08-29T02:19:56.741Z,3.97
2022-08-29T02:22:23.790Z,3.90
2022-08-29T02:24:50.843Z,3.90
2022-08-29T02:27:17.954Z,3.88
2022-08-29T02:29:45.002Z,3.70
2022-08-29T02:32:12.294Z,4.13
2022-08-29T02:34:39.443Z,3.90
2022-08-29T02:37:09.569Z,3.83
2022-08-29T02:39:36.607Z,3.90
2022-08-29T02:42:03.660Z,3.80
2022-08-29T02:44:30.746Z,3.85
2022-08-29T02:46:57.901Z,3.67
2022-08-29T02:49:25.070Z,3.97
2022-08-29T02:51:52.126Z,4.00
2022-08-29T02:54:19.450Z,3.63
2022-08-29T02:56:46.494Z,3.63
2022-08-29T02:59:14.279Z,3.78
2022-08-29T03:01:41.342Z,3.67
2022-08-29T03:04:08.506Z,3.72
2022-08-29T03:06:35.605Z,3.75
2022-08-29T03:09:02.699Z,4.28
2022-08-29T03:11:29.909Z,4.10
2022-08-29T03:13:57.510Z,3.95
2022-08-29T03:16:25.012Z,3.90
2022-08-29T03:18:52.123Z,3.83
2022-08-29T03:21:20.355Z,3.75
2022-08-29T03:23:47.383Z,3.50
2022-08-29T03:26:14.418Z,3.85
2022-08-29T03:28:41.465Z,4.10
2022-08-29T03:31:09.145Z,3.78
2022-08-29T03:33:36.246Z,4.07
2022-08-29T03:36:03.499Z,3.60
2022-08-29T03:38:35.772Z,3.80
2022-08-29T03:41:02.941Z,3.92
2022-08-29T03:43:30.206Z,3.40
2022-08-29T03:45:57.329Z,3.53
2022-08-29T03:48:24.375Z,3.63
2022-08-29T03:50:56.217Z,3.85
2022-08-29T03:53:23.555Z,3.67
2022-08-29T03:55:52.007Z,3.67
2022-08-29T03:58:19.494Z,3.67
2022-08-29T04:00:47.027Z,4.00
2022-08-29T04:03:14.231Z,3.58
2022-08-29T04:05:41.378Z,3.67
2022-08-29T04:08:08.683Z,3.28
2022-08-29T04:10:37.541Z,3.60
2022-08-29T04:13:05.937Z,3.60
2022-08-29T04:15:33.537Z,3.92
2022-08-29T04:18:00.573Z,3.50
2022-08-29T04:20:27.607Z,3.63
2022-08-29T04:22:54.647Z,3.80
2022-08-29T04:25:21.911Z,3.65
2022-08-29T04:27:49.706Z,3.88
2022-08-29T04:30:16.880Z,3.50
2022-08-29T04:32:43.940Z,3.58
2022-08-29T04:35:12.669Z,3.70
2022-08-29T04:37:39.963Z,3.60
2022-08-29T04:40:07.099Z,3.63
2022-08-29T04:42:34.215Z,3.90
2022-08-29T04:45:01.253Z,3.60
2022-08-29T04:47:28.289Z,3.70
2022-08-29T04:49:55.551Z,3.90
2022-08-29T04:52:22.700Z,3.67
2022-08-29T04:54:50.261Z,3.65
2022-08-29T04:57:17.307Z,3.50
2022-08-29T04:59:44.910Z,3.47
2022-08-29T05:02:12.313Z,3.70
2022-08-29T05:04:39.446Z,3.85
2022-08-29T05:07:06.534Z,3.30
2022-08-29T05:09:33.819Z,3.50
2022-08-29T05:12:00.863Z,3.55
2022-08-29T05:14:27.908Z,3.30
2022-08-29T05:16:54.977Z,3.20
2022-08-29T05:19:22.067Z,3.40
2022-08-29T05:21:50.026Z,3.67
2022-08-29T05:24:17.726Z,3.50
2022-08-29T05:26:44.780Z,3.30
2022-08-29T05:29:11.852Z,3.70
2022-08-29T05:31:41.086Z,3.50
2022-08-29T05:34:14.074Z,3.30
2022-08-29T05:36:55.455Z,3.35
2022-08-29T05:39:22.505Z,3.40
2022-08-29T05:41:50.220Z,3.42
2022-08-29T05:44:17.248Z,3.30
2022-08-29T05:46:44.353Z,3.28
2022-08-29T05:49:11.414Z,3.20
2022-08-29T05:51:39.775Z,3.33
2022-08-29T05:54:07.050Z,3.50
2022-08-29T05:56:34.107Z,3.30
2022-08-29T05:59:01.139Z,3.13
2022-08-29T06:01:28.203Z,3.30
2022-08-29T06:03:55.341Z,2.83
2022-08-29T06:06:23.385Z,3.58
2022-08-29T06:08:51.062Z,3.05
2022-08-29T06:11:18.126Z,3.15
2022-08-29T06:13:45.212Z,3.10
2022-08-29T06:16:12.436Z,2.92
2022-08-29T06:18:39.495Z,3.08
2022-08-29T06:21:06.624Z,2.80
2022-08-29T06:23:33.705Z,3.00
2022-08-29T06:26:00.744Z,2.70
2022-08-29T06:28:27.774Z,3.00
2022-08-29T06:30:54.849Z,2.88
2022-08-29T06:33:22.075Z,3.30
2022-08-29T06:35:49.140Z,3.15
2022-08-29T06:38:16.444Z,3.30
2022-08-29T06:40:43.774Z,2.80
2022-08-29T06:43:10.850Z,2.92
2022-08-29T06:45:37.999Z,3.00
2022-08-29T06:48:05.038Z,3.25
2022-08-29T06:50:32.161Z,2.90
2022-08-29T06:53:26.581Z,2.65
2022-08-29T06:55:46.949Z,2.75
2022-08-29T06:58:14.142Z,3.00
2022-08-29T07:00:41.277Z,2.85
2022-08-29T07:03:08.478Z,3.05
2022-08-29T07:05:35.615Z,2.70
2022-08-29T07:08:02.803Z,2.88
2022-08-29T07:10:29.834Z,2.90
2022-08-29T07:12:56.943Z,2.75
2022-08-29T07:15:24.123Z,3.00
2022-08-29T07:17:51.271Z,3.20
2022-08-29T07:20:18.481Z,2.60
2022-08-29T07:22:51.116Z,2.70
2022-08-29T07:25:18.202Z,2.70
2022-08-29T07:27:45.306Z,2.95
2022-08-29T07:30:12.389Z,2.83
2022-08-29T07:32:43.337Z,2.80
2022-08-29T07:35:13.355Z,2.58
2022-08-29T07:37:40.714Z,2.58
2022-08-29T07:40:07.899Z,2.75
2022-08-29T07:42:34.955Z,2.72
2022-08-29T07:45:02.583Z,2.70
2022-08-29T07:47:29.606Z,2.60
2022-08-29T07:49:56.810Z,2.72
2022-08-29T07:52:23.911Z,2.65
2022-08-29T07:54:51.018Z,2.53
2022-08-29T07:57:18.050Z,2.40
2022-08-29T07:59:45.098Z,2.80
2022-08-29T08:02:12.237Z,2.80
2022-08-29T08:04:39.546Z,2.70
2022-08-29T08:07:06.641Z,2.50
2022-08-29T08:09:40.962Z,2.78
2022-08-29T08:12:09.732Z,2.60
2022-08-29T08:14:36.808Z,2.55
2022-08-29T08:17:03.928Z,2.40
2022-08-29T08:19:31.211Z,2.60
2022-08-29T08:21:59.419Z,2.60
2022-08-29T08:24:26.474Z,2.70
2022-08-29T08:26:53.963Z,2.50
2022-08-29T08:29:21.070Z,2.40
2022-08-29T08:31:49.503Z,2.53
2022-08-29T08:34:16.666Z,2.40
2022-08-29T08:36:44.806Z,2.40
2022-08-29T08:39:11.868Z,2.58
2022-08-29T08:41:39.149Z,2.40
2022-08-29T08:44:07.444Z,2.15
2022-08-29T08:46:36.170Z,2.20
2022-08-29T08:49:03.577Z,2.35
2022-08-29T08:51:30.711Z,2.40
2022-08-29T08:53:57.750Z,2.35
2022-08-29T08:56:24.794Z,2.10
2022-08-29T08:58:51.906Z,2.40
2022-08-29T09:01:19.035Z,2.42
2022-08-29T09:03:47.067Z,2.45
2022-08-29T09:06:15.765Z,2.20
2022-08-29T09:08:43.002Z,2.28
2022-08-29T09:11:11.358Z,2.28
2022-08-29T09:13:38.737Z,2.22
2022-08-29T09:16:05.786Z,2.40
2022-08-29T09:18:32.814Z,2.35
2022-08-29T09:21:06.530Z,2.40
2022-08-29T09:23:37.006Z,2.50
2022-08-29T09:26:04.075Z,2.30
2022-08-29T09:28:31.438Z,2.28
2022-08-29T09:30:58.498Z,2.20
2022-08-29T09:33:25.532Z,2.50
2022-08-29T09:35:52.574Z,2.30
2022-08-29T09:38:21.245Z,2.47
2022-08-29T09:40:48.353Z,2.42
2022-08-29T09:43:15.617Z,2.60
2022-08-29T09:45:42.748Z,2.13
2022-08-29T09:48:10.100Z,2.38
2022-08-29T09:50:37.160Z,2.40
2022-08-29T09:53:05.770Z,2.30
2022-08-29T09:55:51.300Z,2.13
2022-08-29T09:58:19.158Z,2.30
2022-08-29T10:00:46.285Z,2.30
2022-08-29T10:03:13.416Z,2.45
2022-08-29T10:05:46.824Z,2.33
2022-08-29T10:08:13.874Z,2.20
2022-08-29T10:10:41.082Z,2.17
2022-08-29T10:13:08.411Z,2.40
2022-08-29T10:15:49.855Z,2.33
2022-08-29T10:18:20.527Z,2.40
2022-08-29T10:20:47.599Z,2.53
2022-08-29T10:23:14.786Z,2.22
2022-08-29T10:25:42.094Z,2.25
2022-08-29T10:28:09.179Z,2.20
2022-08-29T10:30:36.217Z,2.38
2022-08-29T10:33:04.655Z,2.38
2022-08-29T10:35:31.690Z,2.28
2022-08-29T10:37:58.747Z,2.33
2022-08-29T10:40:25.885Z,2.00
2022-08-29T10:42:53.755Z,2.38
2022-08-29T10:45:20.827Z,2.33
2022-08-29T10:47:47.903Z,2.38
2022-08-29T10:50:27.447Z,2.33
2022-08-29T10:53:01.298Z,2.30
2022-08-29T10:55:28.351Z,2.30
2022-08-29T10:57:55.414Z,2.28
2022-08-29T11:00:22.672Z,2.30
2022-08-29T11:02:49.744Z,2.17
2022-08-29T11:05:17.323Z,2.25
2022-08-29T11:07:44.427Z,2.45
2022-08-29T11:10:11.503Z,2.30
2022-08-29T11:12:45.075Z,2.35
2022-08-29T11:15:12.120Z,2.50
2022-08-29T11:17:39.154Z,2.30
2022-08-29T11:20:11.406Z,2.17
2022-08-29T11:22:38.594Z,2.33
2022-08-29T11:25:05.639Z,2.50
2022-08-29T11:27:32.700Z,2.80
2022-08-29T11:29:59.790Z,2.28
2022-08-29T11:32:26.893Z,2.50
2022-08-29T11:34:54.330Z,2.65
2022-08-29T11:37:21.371Z,2.75
2022-08-29T11:39:48.411Z,2.50
2022-08-29T11:42:49.895Z,2.80
2022-08-29T11:45:03.724Z,2.50
2022-08-29T11:47:30.825Z,2.42
2022-08-29T11:50:04.711Z,2.67
2022-08-29T11:52:31.847Z,2.65
2022-08-29T11:54:58.888Z,2.53
2022-08-29T11:57:25.915Z,2.70
2022-08-29T11:59:54.602Z,2.45
2022-08-29T12:02:22.405Z,2.25
2022-08-29T12:04:49.572Z,2.45
2022-08-29T12:07:16.692Z,2.33
2022-08-29T12:09:43.915Z,2.70
2022-08-29T12:12:12.698Z,2.60
2022-08-29T12:14:39.737Z,2.55
2022-08-29T12:17:06.853Z,2.90
2022-08-29T12:19:33.886Z,2.50
2022-08-29T12:22:01.149Z,2.45
2022-08-29T12:24:28.930Z,2.72
2022-08-29T12:26:56.025Z,2.58
2022-08-29T12:29:23.140Z,2.67
2022-08-29T12:32:17.535Z,2.63
2022-08-29T12:34:38.861Z,2.67
2022-08-29T12:37:10.633Z,2.70
2022-08-29T12:39:37.712Z,2.40
2022-08-29T12:42:04.774Z,2.42
2022-08-29T12:44:31.868Z,2.50
2022-08-29T12:46:58.956Z,2.50
2022-08-29T12:49:26.851Z,2.42
2022-08-29T12:51:53.902Z,2.40
2022-08-29T12:54:20.940Z,2.50
2022-08-29T12:56:48.018Z,2.40
2022-08-29T12:59:15.068Z,2.70
2022-08-29T13:01:42.172Z,2.55
2022-08-29T13:04:09.265Z,2.58
2022-08-29T13:06:36.398Z,2.40
2022-08-29T13:09:04.973Z,2.47
2022-08-29T13:11:32.239Z,2.40
2022-08-29T13:13:59.316Z,2.25
2022-08-29T13:16:26.497Z,2.40
2022-08-29T13:19:09.980Z,2.50
2022-08-29T13:21:37.765Z,2.30
2022-08-29T13:24:04.891Z,2.60
2022-08-29T13:26:34.113Z,2.40
2022-08-29T13:29:01.315Z,2.50
2022-08-29T13:31:28.681Z,2.55
2022-08-29T13:33:55.932Z,2.45
2022-08-29T13:36:22.979Z,2.28
2022-08-29T13:38:50.037Z,2.30
2022-08-29T13:41:17.075Z,2.55
2022-08-29T13:43:44.822Z,2.42
2022-08-29T13:46:14.919Z,2.42
2022-08-29T13:48:42.431Z,2.33
2022-08-29T13:51:09.465Z,2.20
2022-08-29T13:53:36.516Z,2.42
2022-08-29T13:56:03.553Z,2.40
2022-08-29T13:58:31.529Z,2.60
2022-08-29T14:00:58.742Z,2.40
2022-08-29T14:03:25.956Z,2.50
2022-08-29T14:05:56.627Z,2.35
2022-08-29T14:08:23.840Z,2.50
2022-08-29T14:10:50.916Z,2.30
2022-08-29T14:13:18.004Z,2.38
2022-08-29T14:15:45.093Z,2.58
2022-08-29T14:18:12.278Z,2.50
2022-08-29T14:20:39.862Z,2.60
2022-08-29T14:23:07.299Z,2.28
2022-08-29T14:25:34.355Z,2.20
2022-08-29T14:28:01.434Z,2.20
2022-08-29T14:30:28.538Z,2.45
2022-08-29T14:32:55.606Z,2.20
2022-08-29T14:35:26.003Z,2.53
2022-08-29T14:37:53.490Z,2.53
2022-08-29T14:40:21.664Z,2.55
2022-08-29T14:42:49.100Z,2.10
2022-08-29T14:45:16.171Z,2.20
2022-08-29T14:47:43.557Z,2.30
2022-08-29T14:50:12.770Z,2.20
2022-08-29T14:52:39.820Z,2.13
2022-08-29T14:55:06.863Z,2.70
2022-08-29T14:57:35.912Z,2.40
2022-08-29T15:00:02.983Z,2.30
2022-08-29T15:02:30.058Z,2.10
2022-08-29T15:04:58.533Z,2.30
2022-08-29T15:07:25.578Z,2.20
2022-08-29T15:09:52.655Z,2.40
2022-08-29T15:12:21.663Z,2.40
2022-08-29T15:14:48.770Z,2.33
2022-08-29T15:17:15.846Z,2.05
2022-08-29T15:22:30.020Z,2.42
2022-08-29T15:24:57.077Z,2.28
2022-08-29T15:27:27.456Z,2.25
2022-08-29T15:29:55.190Z,2.20
2022-08-29T15:32:22.311Z,2.33
2022-08-29T15:34:49.575Z,2.38
2022-08-29T15:37:16.884Z,2.22
2022-08-29T15:39:44.138Z,2.30
2022-08-29T15:42:11.351Z,2.40
2022-08-29T15:44:38.438Z,2.17
2022-08-29T15:47:05.516Z,2.45
2022-08-29T15:49:37.670Z,2.45
2022-08-29T15:52:05.076Z,2.40
2022-08-29T15:54:32.114Z,2.40
2022-08-29T15:56:59.146Z,2.40
2022-08-29T15:59:47.266Z,2.20
2022-08-29T16:02:14.495Z,2.30
2022-08-29T16:04:44.792Z,2.40
2022-08-29T16:07:13.582Z,2.30
2022-08-29T16:09:40.618Z,2.38
2022-08-29T16:12:08.373Z,2.42
2022-08-29T16:17:22.485Z,2.20
2022-08-29T16:19:49.564Z,2.40
2022-08-29T16:22:16.615Z,2.25
2022-08-29T16:24:44.215Z,2.72
2022-08-29T16:27:11.358Z,2.60
2022-08-29T16:29:38.487Z,2.63
2022-08-29T16:32:07.713Z,2.67
2022-08-29T16:34:34.758Z,2.70
2022-08-29T16:37:01.838Z,2.50
2022-08-29T16:39:28.984Z,2.50
2022-08-29T16:41:56.023Z,2.67
2022-08-29T16:44:23.063Z,2.50
2022-08-29T16:46:50.142Z,2.25
2022-08-29T16:49:17.198Z,2.58
2022-08-29T16:51:44.241Z,3.08
2022-08-29T16:54:12.420Z,2.78
2022-08-29T16:56:39.803Z,2.50
2022-08-29T16:59:06.914Z,2.42
2022-08-29T17:01:34.628Z,2.50
2022-08-29T17:04:01.824Z,2.60
2022-08-29T17:06:29.091Z,2.88
2022-08-29T17:08:56.126Z,2.55
2022-08-29T17:11:23.131Z,2.40
2022-08-29T17:13:50.125Z,2.53
2022-08-29T17:16:17.217Z,2.53
2022-08-29T17:18:44.314Z,2.50
2022-08-29T17:21:11.506Z,2.45
2022-08-29T17:23:38.680Z,2.30
2022-08-29T17:26:05.713Z,2.70
2022-08-29T17:28:32.774Z,2.60
2022-08-29T17:30:59.888Z,2.60
2022-08-29T17:33:26.949Z,2.70
2022-08-29T17:35:54.055Z,2.75
2022-08-29T17:38:21.082Z,2.40
2022-08-29T17:40:49.093Z,2.50
2022-08-29T17:43:18.367Z,2.58
2022-08-29T17:45:45.553Z,2.60
2022-08-29T17:48:12.675Z,2.75
2022-08-29T17:50:40.432Z,2.80
2022-08-29T17:53:07.506Z,2.55
2022-08-29T17:55:34.561Z,2.90
2022-08-29T17:58:01.598Z,2.70
2022-08-29T18:00:28.730Z,2.60
2022-08-29T18:02:55.903Z,2.53
2022-08-29T18:05:22.968Z,2.50
2022-08-29T18:07:51.432Z,2.75
2022-08-29T18:10:18.631Z,2.78
2022-08-29T18:12:45.695Z,2.50
2022-08-29T18:15:12.765Z,2.90
2022-08-29T18:17:39.911Z,2.80
2022-08-29T18:20:07.555Z,2.90
2022-08-29T18:22:34.690Z,3.45
2022-08-29T18:25:01.751Z,3.55
2022-08-29T18:27:28.825Z,2.85
2022-08-29T18:29:56.794Z,2.90
2022-08-29T18:32:25.589Z,3.00
2022-08-29T18:34:57.613Z,2.92
2022-08-29T18:37:27.492Z,2.83
2022-08-29T18:39:54.728Z,3.17
2022-08-29T18:42:39.421Z,2.80
2022-08-29T18:45:08.134Z,3.13
2022-08-29T18:47:35.188Z,3.10
2022-08-29T18:50:20.778Z,2.78
2022-08-29T18:52:52.250Z,3.35
2022-08-29T18:55:19.390Z,3.17
2022-08-29T18:57:48.308Z,2.92
2022-08-29T19:00:15.431Z,3.00
2022-08-29T19:02:42.656Z,2.90
2022-08-29T19:05:09.804Z,3.00
2022-08-29T19:07:36.839Z,3.15
2022-08-29T19:10:03.906Z,3.10
2022-08-29T19:12:30.998Z,2.70
2022-08-29T19:14:58.066Z,2.85
2022-08-29T19:17:25.100Z,2.90
2022-08-29T19:20:11.019Z,2.80
2022-08-29T19:22:39.512Z,2.88
2022-08-29T19:25:06.950Z,3.13
2022-08-29T19:27:43.246Z,3.03
2022-08-29T19:30:11.093Z,2.90
2022-08-29T19:32:38.575Z,3.10
2022-08-29T19:35:05.609Z,3.10
2022-08-29T19:37:33.107Z,3.33
2022-08-29T19:40:01.176Z,3.00
2022-08-29T19:42:28.458Z,2.92
2022-08-29T19:44:56.451Z,2.80
2022-08-29T19:47:24.008Z,3.00
2022-08-29T19:49:51.718Z,3.20
2022-08-29T19:52:18.761Z,3.10
2022-08-29T19:54:46.492Z,3.00
2022-08-29T19:57:14.673Z,3.10
2022-08-29T19:59:42.388Z,3.00
2022-08-29T20:02:10.770Z,3.33
2022-08-29T20:04:37.902Z,2.72
2022-08-29T20:07:05.460Z,3.30
2022-08-29T20:09:32.535Z,3.20
2022-08-29T20:12:00.884Z,3.10
2022-08-29T20:14:28.002Z,2.90
2022-08-29T20:16:55.224Z,3.25
